Time;durP1;ratioP1;P1;durP2;ratioP2;P2;SDS_P1;SDS_P2;PMS_P1;PMS_P2;Temp;Humidity;BMP_temperature;BMP_pressure;BME280_temperature;BME280_humidity;BME280_pressure;Samples;Min_cycle;Max_cycle;Signal;HPM_P1;HPM_P2
2021/07/09 00:01:29;;;;;;;4.20;2.78;;;;;;;;;;5034760;28;20624;-48
2021/07/09 00:03:56;;;;;;;4.32;3.10;;;;;;;;;;5033929;28;20553;-48
2021/07/09 00:06:22;;;;;;;4.30;2.80;;;;;;;;;;5034228;28;20478;-48
2021/07/09 00:08:48;;;;;;;3.08;2.80;;;;;;;;;;5033167;28;20215;-48
2021/07/09 00:11:15;;;;;;;4.00;2.75;;;;;;;;;;5034368;28;20262;-48
2021/07/09 00:13:41;;;;;;;2.80;2.60;;;;;;;;;;5034167;28;20249;-48
2021/07/09 00:16:10;;;;;;;3.72;2.63;;;;;;;;;;5033892;28;20219;-48
2021/07/09 00:18:36;;;;;;;2.97;2.35;;;;;;;;;;5034407;28;20172;-48
2021/07/09 00:21:02;;;;;;;3.28;2.55;;;;;;;;;;5034754;28;20433;-48
2021/07/09 00:23:28;;;;;;;4.88;2.90;;;;;;;;;;5029216;28;20252;-48
2021/07/09 00:25:54;;;;;;;5.95;2.88;;;;;;;;;;5030315;28;20179;-47
2021/07/09 00:28:20;;;;;;;5.57;3.45;;;;;;;;;;5034696;28;20210;-47
2021/07/09 00:30:46;;;;;;;8.00;3.00;;;;;;;;;;5034411;28;20177;-47
2021/07/09 00:33:12;;;;;;;6.75;2.70;;;;;;;;;;5033973;28;20570;-47
2021/07/09 00:35:38;;;;;;;2.35;2.15;;;;;;;;;;5034231;28;20574;-47
2021/07/09 00:38:04;;;;;;;5.18;2.30;;;;;;;;;;5034260;28;20175;-47
2021/07/09 00:40:30;;;;;;;4.53;2.25;;;;;;;;;;5021958;28;20173;-47
2021/07/09 00:42:56;;;;;;;5.97;3.13;;;;;;;;;;5022355;28;20186;-47
2021/07/09 00:45:22;;;;;;;7.90;3.53;;;;;;;;;;5033958;28;20306;-47
2021/07/09 00:47:49;;;;;;;5.43;2.78;;;;;;;;;;5030646;28;20444;-47
2021/07/09 00:50:16;;;;;;;3.17;2.03;;;;;;;;;;5034345;28;20178;-47
2021/07/09 00:52:42;;;;;;;3.78;2.30;;;;;;;;;;5034316;28;20188;-47
2021/07/09 00:55:09;;;;;;;3.80;2.65;;;;;;;;;;5033281;28;20176;-47
2021/07/09 00:57:38;;;;;;;3.08;2.17;;;;;;;;;;5032411;28;20203;-47
2021/07/09 01:00:06;;;;;;;2.35;2.15;;;;;;;;;;5034427;28;20172;-47
2021/07/09 01:02:32;;;;;;;3.45;3.08;;;;;;;;;;5034132;28;20192;-46
2021/07/09 01:04:58;;;;;;;3.17;2.70;;;;;;;;;;5033966;28;20187;-48
2021/07/09 01:07:24;;;;;;;3.70;2.50;;;;;;;;;;5033081;28;20195;-47
2021/07/09 01:09:51;;;;;;;2.88;2.20;;;;;;;;;;5034123;28;20172;-47
2021/07/09 01:12:19;;;;;;;5.18;2.35;;;;;;;;;;5029235;28;20264;-47
2021/07/09 01:14:45;;;;;;;3.22;2.35;;;;;;;;;;5018278;28;20589;-47
2021/07/09 01:17:12;;;;;;;3.03;2.20;;;;;;;;;;5014149;28;20295;-47
2021/07/09 01:19:38;;;;;;;2.65;1.98;;;;;;;;;;5030942;28;20183;-47
2021/07/09 01:22:06;;;;;;;2.28;2.05;;;;;;;;;;5034217;28;20187;-47
2021/07/09 01:24:32;;;;;;;2.30;2.10;;;;;;;;;;5033599;28;20555;-47
2021/07/09 01:26:58;;;;;;;3.17;2.13;;;;;;;;;;5033452;28;20188;-47
2021/07/09 01:29:24;;;;;;;3.47;2.03;;;;;;;;;;5032721;28;20226;-47
2021/07/09 01:31:50;;;;;;;3.50;1.90;;;;;;;;;;5033967;28;20247;-47
2021/07/09 01:34:16;;;;;;;2.05;1.88;;;;;;;;;;5033330;28;20196;-47
2021/07/09 01:36:42;;;;;;;3.55;1.83;;;;;;;;;;5033260;28;20526;-47
2021/07/09 01:39:08;;;;;;;2.28;2.00;;;;;;;;;;5037006;28;20183;-47
2021/07/09 01:41:34;;;;;;;2.65;2.30;;;;;;;;;;5037499;28;20458;-47
2021/07/09 01:44:01;;;;;;;3.17;2.00;;;;;;;;;;5033621;28;20173;-47
2021/07/09 01:46:27;;;;;;;1.90;1.80;;;;;;;;;;5037005;28;20180;-47
2021/07/09 01:48:53;;;;;;;2.45;1.60;;;;;;;;;;5036954;28;20455;-47
2021/07/09 01:51:19;;;;;;;2.25;1.90;;;;;;;;;;5036851;28;20563;-47
2021/07/09 01:53:45;;;;;;;2.60;1.60;;;;;;;;;;5035772;28;20341;-46
2021/07/09 01:56:11;;;;;;;2.03;1.52;;;;;;;;;;5036614;28;20216;-47
2021/07/09 01:58:37;;;;;;;1.90;1.40;;;;;;;;;;5036870;28;20190;-47
2021/07/09 02:01:04;;;;;;;1.88;1.10;;;;;;;;;;5036554;28;20195;-47
2021/07/09 02:03:30;;;;;;;1.35;1.30;;;;;;;;;;5036942;28;20536;-47
2021/07/09 02:05:56;;;;;;;2.03;1.38;;;;;;;;;;5035986;28;20215;-47
2021/07/09 02:08:22;;;;;;;1.20;1.20;;;;;;;;;;5037058;28;20453;-47
2021/07/09 02:10:48;;;;;;;3.60;1.38;;;;;;;;;;5037071;28;20172;-47
2021/07/09 02:13:13;;;;;;;1.35;1.00;;;;;;;;;;5036938;28;20483;-47
2021/07/09 02:15:40;;;;;;;1.00;1.00;;;;;;;;;;5035604;28;20267;-47
2021/07/09 02:18:06;;;;;;;1.48;1.30;;;;;;;;;;5034595;28;20179;-47
2021/07/09 02:20:33;;;;;;;3.25;1.20;;;;;;;;;;5036534;28;20226;-47
2021/07/09 02:22:59;;;;;;;1.33;1.10;;;;;;;;;;5036149;28;20171;-47
2021/07/09 02:25:26;;;;;;;0.95;0.95;;;;;;;;;;5030920;28;20278;-47
2021/07/09 02:27:53;;;;;;;2.10;0.95;;;;;;;;;;5034262;28;20191;-47
2021/07/09 02:30:19;;;;;;;1.90;1.00;;;;;;;;;;5017083;28;20515;-47
2021/07/09 02:32:46;;;;;;;1.20;1.10;;;;;;;;;;5027634;28;20180;-48
2021/07/09 02:35:13;;;;;;;1.42;0.90;;;;;;;;;;5036205;28;20171;-48
2021/07/09 02:37:39;;;;;;;1.25;0.98;;;;;;;;;;5035855;28;20207;-48
2021/07/09 02:40:09;;;;;;;1.95;1.10;;;;;;;;;;5036511;28;20172;-47
2021/07/09 02:42:35;;;;;;;1.33;1.10;;;;;;;;;;5035748;28;20563;-47
2021/07/09 02:45:01;;;;;;;0.90;0.90;;;;;;;;;;5035884;28;20547;-47
2021/07/09 02:47:27;;;;;;;1.58;0.82;;;;;;;;;;5035655;28;20531;-47
2021/07/09 02:49:53;;;;;;;1.00;1.00;;;;;;;;;;5034136;28;20180;-48
2021/07/09 02:52:19;;;;;;;1.15;1.00;;;;;;;;;;5036259;28;20188;-48
2021/07/09 02:54:45;;;;;;;1.70;1.10;;;;;;;;;;5035349;28;20187;-47
2021/07/09 02:57:11;;;;;;;0.90;0.90;;;;;;;;;;5035424;28;20278;-47
2021/07/09 02:59:37;;;;;;;0.60;0.60;;;;;;;;;;5035788;28;20601;-47
2021/07/09 03:02:03;;;;;;;0.70;0.70;;;;;;;;;;5035760;28;20188;-47
2021/07/09 03:04:29;;;;;;;1.40;1.30;;;;;;;;;;5030484;28;20574;-47
2021/07/09 03:06:55;;;;;;;0.80;0.80;;;;;;;;;;5034870;28;20183;-47
2021/07/09 03:09:21;;;;;;;1.02;0.93;;;;;;;;;;5035947;28;20233;-47
2021/07/09 03:11:47;;;;;;;0.95;0.95;;;;;;;;;;5035753;28;20559;-46
2021/07/09 03:14:13;;;;;;;0.80;0.80;;;;;;;;;;5034923;28;20578;-46
2021/07/09 03:16:39;;;;;;;0.98;0.90;;;;;;;;;;5035039;28;20211;-46
2021/07/09 03:19:06;;;;;;;0.70;0.70;;;;;;;;;;5035006;28;20191;-46
2021/07/09 03:21:33;;;;;;;2.55;0.98;;;;;;;;;;5035022;28;20179;-46
2021/07/09 03:23:59;;;;;;;0.88;0.88;;;;;;;;;;5035292;28;20234;-45
2021/07/09 03:26:25;;;;;;;1.88;1.02;;;;;;;;;;5035192;28;20191;-45
2021/07/09 03:28:57;;;;;;;1.00;0.90;;;;;;;;;;5027985;28;20173;-45
2021/07/09 03:31:23;;;;;;;0.88;0.88;;;;;;;;;;5027723;28;20226;-45
2021/07/09 03:33:49;;;;;;;0.88;0.88;;;;;;;;;;5035177;28;20190;-45
2021/07/09 03:36:15;;;;;;;0.88;0.88;;;;;;;;;;5034681;28;20207;-45
2021/07/09 03:38:41;;;;;;;1.00;1.00;;;;;;;;;;5035029;28;20180;-46
2021/07/09 03:41:06;;;;;;;1.75;0.88;;;;;;;;;;5034853;28;20190;-46
2021/07/09 03:43:32;;;;;;;0.70;0.70;;;;;;;;;;5035237;28;20251;-45
2021/07/09 03:45:58;;;;;;;0.90;0.70;;;;;;;;;;5034142;28;20253;-45
2021/07/09 03:48:24;;;;;;;1.58;0.70;;;;;;;;;;5034890;28;20187;-45
2021/07/09 03:50:50;;;;;;;0.85;0.85;;;;;;;;;;5035023;28;20263;-45
2021/07/09 03:53:16;;;;;;;1.35;0.60;;;;;;;;;;5034647;28;20585;-45
2021/07/09 03:55:42;;;;;;;0.70;0.60;;;;;;;;;;5034200;28;20188;-46
2021/07/09 03:58:08;;;;;;;0.63;0.63;;;;;;;;;;5034583;28;20443;-47
2021/07/09 04:00:35;;;;;;;0.60;0.60;;;;;;;;;;5034234;28;20204;-47
2021/07/09 04:03:01;;;;;;;0.52;0.52;;;;;;;;;;5034844;28;20622;-47
2021/07/09 04:05:27;;;;;;;1.02;0.73;;;;;;;;;;5034616;28;20222;-47
2021/07/09 04:07:52;;;;;;;1.27;0.70;;;;;;;;;;5028369;28;20211;-47
2021/07/09 04:10:20;;;;;;;1.33;0.80;;;;;;;;;;5030419;28;20551;-47
2021/07/09 04:12:46;;;;;;;1.02;0.80;;;;;;;;;;5034884;28;20171;-47
2021/07/09 04:15:12;;;;;;;0.68;0.68;;;;;;;;;;5033909;28;20630;-47
2021/07/09 04:17:38;;;;;;;0.90;0.70;;;;;;;;;;5033549;28;20225;-47
2021/07/09 04:20:04;;;;;;;1.15;0.60;;;;;;;;;;5034463;28;20679;-47
2021/07/09 04:22:30;;;;;;;0.98;0.60;;;;;;;;;;5034789;28;20226;-47
2021/07/09 04:24:56;;;;;;;0.82;0.55;;;;;;;;;;5034561;28;20192;-47
2021/07/09 04:27:22;;;;;;;0.60;0.60;;;;;;;;;;5033835;28;20180;-47
2021/07/09 04:29:48;;;;;;;0.85;0.40;;;;;;;;;;5033400;28;20176;-47
2021/07/09 04:32:14;;;;;;;0.77;0.50;;;;;;;;;;5018278;28;20247;-47
2021/07/09 04:34:40;;;;;;;1.67;0.60;;;;;;;;;;5032579;28;20184;-47
2021/07/09 04:37:08;;;;;;;1.55;0.50;;;;;;;;;;5033870;28;20756;-47
2021/07/09 04:39:36;;;;;;;1.75;0.50;;;;;;;;;;5034460;28;20572;-47
2021/07/09 04:42:02;;;;;;;0.50;0.50;;;;;;;;;;5033458;28;20179;-47
2021/07/09 04:44:28;;;;;;;0.93;0.50;;;;;;;;;;5033771;28;20180;-47
2021/07/09 04:46:54;;;;;;;0.50;0.50;;;;;;;;;;5034263;28;20179;-47
2021/07/09 04:49:20;;;;;;;0.98;0.45;;;;;;;;;;5033932;28;20176;-47
2021/07/09 04:51:46;;;;;;;0.43;0.40;;;;;;;;;;5033959;28;20474;-47
2021/07/09 04:54:12;;;;;;;1.55;0.32;;;;;;;;;;5034490;28;20184;-47
2021/07/09 04:56:38;;;;;;;0.40;0.40;;;;;;;;;;5033558;28;20203;-47
2021/07/09 04:59:04;;;;;;;0.77;0.60;;;;;;;;;;5034122;28;20184;-47
2021/07/09 05:01:30;;;;;;;0.32;0.32;;;;;;;;;;5033600;28;20203;-47
2021/07/09 05:03:56;;;;;;;0.38;0.38;;;;;;;;;;5027881;28;20185;-47
2021/07/09 05:06:22;;;;;;;1.40;0.50;;;;;;;;;;5033753;28;20172;-47
2021/07/09 05:08:48;;;;;;;0.80;0.60;;;;;;;;;;5034106;28;20206;-47
2021/07/09 05:11:14;;;;;;;0.30;0.25;;;;;;;;;;5033411;28;20208;-47
2021/07/09 05:13:40;;;;;;;0.52;0.50;;;;;;;;;;5036786;28;20195;-47
2021/07/09 05:16:07;;;;;;;0.50;0.50;;;;;;;;;;5037714;28;20492;-47
2021/07/09 05:18:33;;;;;;;1.52;0.70;;;;;;;;;;5028621;28;20180;-47
2021/07/09 05:21:02;;;;;;;0.68;0.30;;;;;;;;;;5037754;28;20241;-47
2021/07/09 05:23:28;;;;;;;0.60;0.60;;;;;;;;;;5038069;28;20178;-47
2021/07/09 05:25:54;;;;;;;0.90;0.52;;;;;;;;;;5036929;28;20183;-47
2021/07/09 05:28:20;;;;;;;0.60;0.60;;;;;;;;;;5037957;28;20178;-47
2021/07/09 05:30:46;;;;;;;1.58;0.43;;;;;;;;;;5032247;28;20191;-47
2021/07/09 05:33:15;;;;;;;0.50;0.35;;;;;;;;;;5029818;28;20180;-47
2021/07/09 05:35:43;;;;;;;0.90;0.50;;;;;;;;;;5026280;28;20186;-47
2021/07/09 05:38:09;;;;;;;0.47;0.47;;;;;;;;;;5037095;28;20200;-47
2021/07/09 05:40:35;;;;;;;0.80;0.40;;;;;;;;;;5037434;28;20168;-47
2021/07/09 05:43:01;;;;;;;0.30;0.30;;;;;;;;;;5037723;28;20254;-47
2021/07/09 05:45:27;;;;;;;0.50;0.30;;;;;;;;;;5030652;28;20326;-47
2021/07/09 05:47:53;;;;;;;0.35;0.35;;;;;;;;;;5036691;28;20356;-47
2021/07/09 05:50:19;;;;;;;0.40;0.40;;;;;;;;;;5037643;28;20594;-47
2021/07/09 05:52:45;;;;;;;0.38;0.38;;;;;;;;;;5037372;28;20191;-47
2021/07/09 05:55:11;;;;;;;0.50;0.50;;;;;;;;;;5035705;28;20708;-47
2021/07/09 05:57:37;;;;;;;0.40;0.40;;;;;;;;;;5030303;28;20379;-47
2021/07/09 06:00:04;;;;;;;0.40;0.40;;;;;;;;;;5017490;28;20242;-47
2021/07/09 06:02:30;;;;;;;0.30;0.30;;;;;;;;;;5035213;28;20182;-47
2021/07/09 06:04:56;;;;;;;0.40;0.40;;;;;;;;;;5036792;28;20180;-47
2021/07/09 06:07:22;;;;;;;0.40;0.40;;;;;;;;;;5036758;28;20258;-47
2021/07/09 06:09:48;;;;;;;0.93;0.32;;;;;;;;;;5036317;28;20180;-47
2021/07/09 06:12:14;;;;;;;0.75;0.25;;;;;;;;;;5021226;28;20503;-47
2021/07/09 06:14:40;;;;;;;0.55;0.30;;;;;;;;;;5021425;28;20210;-47
2021/07/09 06:17:06;;;;;;;0.22;0.22;;;;;;;;;;5036548;28;20578;-47
2021/07/09 06:19:32;;;;;;;0.63;0.30;;;;;;;;;;5036616;28;20198;-47
2021/07/09 06:21:59;;;;;;;0.52;0.35;;;;;;;;;;5036426;28;20265;-47
2021/07/09 06:24:25;;;;;;;0.40;0.30;;;;;;;;;;5031430;28;20623;-47
2021/07/09 06:26:51;;;;;;;0.35;0.35;;;;;;;;;;5030087;28;20184;-47
2021/07/09 06:29:17;;;;;;;0.30;0.30;;;;;;;;;;5036776;28;20187;-47
2021/07/09 06:31:43;;;;;;;1.08;0.35;;;;;;;;;;5036463;28;20382;-47
2021/07/09 06:34:09;;;;;;;0.25;0.25;;;;;;;;;;5030897;28;20510;-47
2021/07/09 06:36:35;;;;;;;0.55;0.28;;;;;;;;;;5031508;28;20203;-47
2021/07/09 06:39:01;;;;;;;0.20;0.20;;;;;;;;;;5036227;28;20653;-47
2021/07/09 06:41:27;;;;;;;0.35;0.20;;;;;;;;;;5036541;28;20179;-47
2021/07/09 06:43:53;;;;;;;0.20;0.20;;;;;;;;;;5036351;28;20164;-47
2021/07/09 06:46:19;;;;;;;0.35;0.20;;;;;;;;;;5034942;28;20195;-47
2021/07/09 06:48:45;;;;;;;0.30;0.30;;;;;;;;;;5035869;28;20263;-47
2021/07/09 06:51:11;;;;;;;1.02;0.30;;;;;;;;;;5035779;28;20187;-47
2021/07/09 06:53:39;;;;;;;0.20;0.20;;;;;;;;;;5036219;28;20191;-47
2021/07/09 06:56:05;;;;;;;1.25;0.20;;;;;;;;;;5035842;28;20210;-47
2021/07/09 06:58:31;;;;;;;0.85;0.20;;;;;;;;;;5034566;28;20184;-47
2021/07/09 07:00:58;;;;;;;0.70;0.38;;;;;;;;;;5032228;28;20509;-47
2021/07/09 07:03:24;;;;;;;0.75;0.40;;;;;;;;;;5034756;28;20194;-47
2021/07/09 07:05:50;;;;;;;1.02;0.25;;;;;;;;;;5034402;28;20207;-47
2021/07/09 07:08:23;;;;;;;0.32;0.30;;;;;;;;;;5034658;28;20299;-47
2021/07/09 07:10:51;;;;;;;1.05;0.32;;;;;;;;;;5033060;28;20226;-47
2021/07/09 07:13:17;;;;;;;0.52;0.40;;;;;;;;;;5034925;28;20176;-47
2021/07/09 07:15:43;;;;;;;0.85;0.45;;;;;;;;;;5034598;28;20258;-47
2021/07/09 07:18:10;;;;;;;1.17;0.50;;;;;;;;;;5033992;28;20183;-47
2021/07/09 07:20:37;;;;;;;2.25;0.60;;;;;;;;;;5034805;28;20217;-47
2021/07/09 07:23:03;;;;;;;0.57;0.57;;;;;;;;;;5024418;28;20240;-47
2021/07/09 07:25:29;;;;;;;2.47;0.60;;;;;;;;;;5034913;28;20502;-47
2021/07/09 07:27:55;;;;;;;0.70;0.70;;;;;;;;;;5033994;28;20548;-47
2021/07/09 07:30:21;;;;;;;2.13;0.90;;;;;;;;;;5034397;28;20179;-47
2021/07/09 07:32:48;;;;;;;6.55;0.90;;;;;;;;;;5035148;28;20438;-47
2021/07/09 07:35:14;;;;;;;1.23;0.85;;;;;;;;;;5034407;28;20266;-47
2021/07/09 07:37:40;;;;;;;1.83;0.85;;;;;;;;;;5032861;28;20214;-47
2021/07/09 07:40:07;;;;;;;1.88;0.70;;;;;;;;;;5034513;28;20176;-47
2021/07/09 07:42:33;;;;;;;0.82;0.70;;;;;;;;;;5034096;28;20176;-47
2021/07/09 07:44:59;;;;;;;0.77;0.77;;;;;;;;;;5034140;28;20171;-47
2021/07/09 07:47:25;;;;;;;3.47;0.63;;;;;;;;;;5033598;28;20637;-47
2021/07/09 07:49:51;;;;;;;1.10;0.70;;;;;;;;;;5033898;28;20551;-47
2021/07/09 07:52:17;;;;;;;2.25;0.65;;;;;;;;;;5034870;28;20567;-47
2021/07/09 07:54:43;;;;;;;0.47;0.47;;;;;;;;;;5033778;28;20222;-47
2021/07/09 07:57:09;;;;;;;0.68;0.68;;;;;;;;;;5034075;28;20227;-47
2021/07/09 07:59:35;;;;;;;2.05;0.85;;;;;;;;;;5033600;28;20263;-47
2021/07/09 08:02:01;;;;;;;2.65;0.77;;;;;;;;;;5015112;28;20183;-47
2021/07/09 08:04:27;;;;;;;1.50;0.80;;;;;;;;;;5014999;28;20532;-47
2021/07/09 08:06:53;;;;;;;1.45;0.93;;;;;;;;;;5014844;28;20203;-48
2021/07/09 08:09:19;;;;;;;0.75;0.70;;;;;;;;;;5018811;28;20566;-47
2021/07/09 08:11:45;;;;;;;0.70;0.60;;;;;;;;;;5034724;28;20175;-47
2021/07/09 08:14:11;;;;;;;1.80;0.80;;;;;;;;;;5034539;28;20247;-47
2021/07/09 08:16:38;;;;;;;0.82;0.70;;;;;;;;;;5033575;28;20287;-47
2021/07/09 08:19:03;;;;;;;0.55;0.50;;;;;;;;;;5033738;28;20270;-47
2021/07/09 08:21:30;;;;;;;1.48;0.70;;;;;;;;;;5033939;28;20487;-47
2021/07/09 08:23:56;;;;;;;0.47;0.47;;;;;;;;;;5034210;28;20206;-47
2021/07/09 08:26:22;;;;;;;0.60;0.50;;;;;;;;;;5031511;28;20188;-47
2021/07/09 08:28:48;;;;;;;0.60;0.50;;;;;;;;;;5033770;28;20440;-47
2021/07/09 08:31:14;;;;;;;0.70;0.57;;;;;;;;;;5034302;28;20171;-47
2021/07/09 08:33:40;;;;;;;0.60;0.55;;;;;;;;;;5034345;28;20183;-47
2021/07/09 08:36:06;;;;;;;0.63;0.45;;;;;;;;;;5033435;28;20230;-47
2021/07/09 08:38:33;;;;;;;0.77;0.50;;;;;;;;;;5042931;28;20444;-47
2021/07/09 08:40:59;;;;;;;0.98;0.70;;;;;;;;;;5033328;28;20256;-47
2021/07/09 08:43:25;;;;;;;1.85;0.40;;;;;;;;;;5025853;28;20188;-47
2021/07/09 08:45:51;;;;;;;2.38;0.63;;;;;;;;;;5018739;28;20199;-47
2021/07/09 08:48:19;;;;;;;0.70;0.70;;;;;;;;;;5036072;28;20218;-47
2021/07/09 08:50:45;;;;;;;0.77;0.77;;;;;;;;;;5037985;28;20226;-47
2021/07/09 08:53:11;;;;;;;0.93;0.70;;;;;;;;;;5037099;28;20245;-47
2021/07/09 08:55:38;;;;;;;0.77;0.77;;;;;;;;;;5037815;28;20179;-47
2021/07/09 08:58:05;;;;;;;1.20;0.80;;;;;;;;;;5031787;28;20230;-47
2021/07/09 09:00:34;;;;;;;0.90;0.90;;;;;;;;;;5018187;28;20234;-47
2021/07/09 09:03:01;;;;;;;1.42;1.30;;;;;;;;;;5037829;28;20234;-47
2021/07/09 09:05:28;;;;;;;3.58;2.80;;;;;;;;;;5037595;28;20176;-46
2021/07/09 09:08:04;;;;;;;5.00;2.45;;;;;;;;;;5037439;28;20206;-47
2021/07/09 09:10:34;;;;;;;2.63;2.40;;;;;;;;;;5037484;28;20191;-47
2021/07/09 09:13:04;;;;;;;3.40;2.15;;;;;;;;;;5026454;28;20606;-47
2021/07/09 09:15:30;;;;;;;3.10;2.20;;;;;;;;;;5032125;28;20286;-47
2021/07/09 09:17:56;;;;;;;2.20;2.00;;;;;;;;;;5037174;28;20204;-47
2021/07/09 09:20:22;;;;;;;1.92;1.75;;;;;;;;;;5037697;28;20234;-47
2021/07/09 09:22:51;;;;;;;2.47;1.65;;;;;;;;;;5037717;28;20180;-47
2021/07/09 09:25:18;;;;;;;2.03;1.63;;;;;;;;;;5036874;28;20180;-48
2021/07/09 09:27:44;;;;;;;1.85;1.70;;;;;;;;;;5036938;28;20254;-47
2021/07/09 09:30:14;;;;;;;2.10;1.80;;;;;;;;;;5036019;28;20510;-48
2021/07/09 09:32:51;;;;;;;2.22;1.80;;;;;;;;;;5037544;28;20655;-47
2021/07/09 09:35:23;;;;;;;1.50;1.40;;;;;;;;;;5035335;28;20459;-48
2021/07/09 09:37:50;;;;;;;2.67;1.27;;;;;;;;;;5023796;28;20477;-48
2021/07/09 09:40:17;;;;;;;2.20;1.20;;;;;;;;;;5031742;28;20186;-48
2021/07/09 09:42:43;;;;;;;3.75;1.40;;;;;;;;;;5037350;28;20294;-48
2021/07/09 09:45:09;;;;;;;2.25;1.58;;;;;;;;;;5026791;28;20264;-47
2021/07/09 09:47:37;;;;;;;3.55;1.30;;;;;;;;;;5029073;28;20582;-47
2021/07/09 09:50:07;;;;;;;0.98;0.98;;;;;;;;;;5025293;28;20180;-48
2021/07/09 09:52:36;;;;;;;1.02;0.75;;;;;;;;;;5036176;28;20616;-47
2021/07/09 09:55:05;;;;;;;1.08;0.90;;;;;;;;;;5035493;28;20207;-47
2021/07/09 09:57:32;;;;;;;1.42;0.63;;;;;;;;;;5036396;28;20211;-48
2021/07/09 09:59:58;;;;;;;1.15;0.70;;;;;;;;;;5036345;28;20438;-47
2021/07/09 10:02:24;;;;;;;0.70;0.70;;;;;;;;;;5036603;28;20179;-48
2021/07/09 10:04:52;;;;;;;2.92;0.90;;;;;;;;;;5036947;28;20203;-47
2021/07/09 10:07:18;;;;;;;0.75;0.68;;;;;;;;;;5036288;28;20267;-48
2021/07/09 10:09:45;;;;;;;3.50;0.65;;;;;;;;;;5036700;28;20184;-47
2021/07/09 10:12:16;;;;;;;0.60;0.50;;;;;;;;;;5037187;28;20215;-48
2021/07/09 10:14:44;;;;;;;1.00;0.60;;;;;;;;;;5036808;28;20282;-48
2021/07/09 10:17:10;;;;;;;0.38;0.38;;;;;;;;;;5026332;28;20464;-47
2021/07/09 10:19:37;;;;;;;0.47;0.45;;;;;;;;;;5036015;28;20245;-47
2021/07/09 10:22:04;;;;;;;3.60;0.60;;;;;;;;;;5036666;28;20502;-47
2021/07/09 10:24:30;;;;;;;0.85;0.22;;;;;;;;;;5036525;28;20179;-47
2021/07/09 10:26:56;;;;;;;1.67;0.43;;;;;;;;;;5040651;28;20190;-47
2021/07/09 10:29:24;;;;;;;0.40;0.35;;;;;;;;;;5049053;28;20268;-47
2021/07/09 10:31:51;;;;;;;0.20;0.20;;;;;;;;;;5036315;28;20183;-48
2021/07/09 10:34:24;;;;;;;1.65;0.30;;;;;;;;;;5031672;28;20514;-47
2021/07/09 10:36:52;;;;;;;3.10;0.30;;;;;;;;;;5035785;28;20200;-47
2021/07/09 10:39:34;;;;;;;0.30;0.30;;;;;;;;;;5036310;28;20180;-47
2021/07/09 10:42:15;;;;;;;0.22;0.22;;;;;;;;;;5025605;28;20179;-47
2021/07/09 10:44:55;;;;;;;0.40;0.40;;;;;;;;;;5035986;28;20233;-47
2021/07/09 10:47:21;;;;;;;0.40;0.40;;;;;;;;;;5035724;28;20222;-47
2021/07/09 10:49:50;;;;;;;0.30;0.30;;;;;;;;;;5033594;28;20187;-47
2021/07/09 10:52:35;;;;;;;0.28;0.28;;;;;;;;;;5029069;28;20187;-47
2021/07/09 10:55:01;;;;;;;0.47;0.32;;;;;;;;;;5035657;28;20180;-47
2021/07/09 10:57:27;;;;;;;0.95;0.28;;;;;;;;;;5040080;28;20499;-47
2021/07/09 11:00:11;;;;;;;2.05;0.50;;;;;;;;;;5036303;28;20222;-47
2021/07/09 11:02:56;;;;;;;0.60;0.40;;;;;;;;;;5035749;28;20172;-47
2021/07/09 11:05:40;;;;;;;0.55;0.45;;;;;;;;;;5027134;28;20200;-47
2021/07/09 11:08:25;;;;;;;0.57;0.40;;;;;;;;;;5032621;28;20183;-47
2021/07/09 11:11:01;;;;;;;1.45;0.63;;;;;;;;;;5034833;28;20180;-47
2021/07/09 11:13:44;;;;;;;4.60;1.42;;;;;;;;;;5016475;28;20176;-47
2021/07/09 11:16:22;;;;;;;6.90;2.40;;;;;;;;;;5030092;28;20582;-47
2021/07/09 11:18:52;;;;;;;9.85;4.00;;;;;;;;;;5035054;28;20179;-47
2021/07/09 11:21:38;;;;;;;24.63;15.35;;;;;;;;;;5035490;28;20184;-47
2021/07/09 11:24:04;;;;;;;81.95;58.50;;;;;;;;;;5024674;28;20184;-47
2021/07/09 11:26:32;;;;;;;147.02;109.93;;;;;;;;;;5033936;28;20806;-47
2021/07/09 11:28:58;;;;;;;198.27;149.57;;;;;;;;;;5035053;28;20229;-47
2021/07/09 11:31:37;;;;;;;236.23;177.07;;;;;;;;;;5035461;28;20265;-47
2021/07/09 11:34:04;;;;;;;237.13;178.27;;;;;;;;;;5035296;28;20620;-47
2021/07/09 11:36:40;;;;;;;180.32;124.82;;;;;;;;;;5034924;28;20192;-47
2021/07/09 11:39:11;;;;;;;168.43;100.40;;;;;;;;;;5026959;28;20182;-47
2021/07/09 11:41:57;;;;;;;148.85;87.40;;;;;;;;;;5031413;28;20214;-47
2021/07/09 11:44:27;;;;;;;169.00;71.18;;;;;;;;;;5035579;28;20228;-48
2021/07/09 11:46:54;;;;;;;120.75;50.97;;;;;;;;;;5034696;28;20603;-48
2021/07/09 11:49:22;;;;;;;120.20;45.42;;;;;;;;;;5035138;28;20168;-47
2021/07/09 11:51:48;;;;;;;64.70;23.85;;;;;;;;;;5034871;28;20200;-47
2021/07/09 11:54:15;;;;;;;73.40;26.17;;;;;;;;;;5034515;28;20196;-47
2021/07/09 11:56:41;;;;;;;61.10;23.35;;;;;;;;;;5025131;28;20195;-47
2021/07/09 11:59:20;;;;;;;46.97;18.77;;;;;;;;;;5034505;28;20567;-47
2021/07/09 12:02:01;;;;;;;34.45;15.25;;;;;;;;;;5034770;28;20191;-47
2021/07/09 12:04:28;;;;;;;22.65;10.98;;;;;;;;;;5034926;28;20317;-47
2021/07/09 12:07:12;;;;;;;24.20;10.45;;;;;;;;;;5034409;28;20179;-47
2021/07/09 12:09:38;;;;;;;17.10;7.50;;;;;;;;;;5033961;28;20175;-47
2021/07/09 12:12:04;;;;;;;17.67;7.75;;;;;;;;;;5034414;28;20592;-47
2021/07/09 12:14:30;;;;;;;17.92;7.85;;;;;;;;;;5034887;28;20211;-47
2021/07/09 12:16:59;;;;;;;13.70;5.95;;;;;;;;;;5034238;28;20570;-47
2021/07/09 12:19:24;;;;;;;11.32;4.85;;;;;;;;;;5034312;28;20186;-47
2021/07/09 12:21:54;;;;;;;9.05;4.68;;;;;;;;;;5034228;28;20175;-47
2021/07/09 12:24:21;;;;;;;11.18;4.38;;;;;;;;;;5034322;28;20188;-47
2021/07/09 12:26:48;;;;;;;8.65;4.30;;;;;;;;;;5024956;28;20615;-47
2021/07/09 12:29:14;;;;;;;10.25;4.68;;;;;;;;;;5029359;28;20208;-48
2021/07/09 12:31:41;;;;;;;7.97;3.22;;;;;;;;;;5034278;28;20188;-48
2021/07/09 12:34:21;;;;;;;6.90;3.28;;;;;;;;;;5033931;28;20199;-48
2021/07/09 12:36:47;;;;;;;10.35;3.33;;;;;;;;;;5033487;28;20210;-48
2021/07/09 12:39:23;;;;;;;8.32;2.72;;;;;;;;;;5033937;28;20206;-48
2021/07/09 12:41:49;;;;;;;6.63;2.38;;;;;;;;;;5031163;28;20179;-48
2021/07/09 12:44:17;;;;;;;8.02;2.30;;;;;;;;;;5014794;28;20183;-48
2021/07/09 12:46:44;;;;;;;7.18;2.42;;;;;;;;;;5014270;28;20187;-48
2021/07/09 12:49:10;;;;;;;7.25;2.78;;;;;;;;;;5030273;28;20523;-48
2021/07/09 12:51:37;;;;;;;10.10;2.20;;;;;;;;;;5034281;28;20462;-48
2021/07/09 12:54:04;;;;;;;6.07;2.10;;;;;;;;;;5033509;28;20183;-48
2021/07/09 12:56:31;;;;;;;1.88;1.60;;;;;;;;;;5033494;28;20192;-48
2021/07/09 12:59:01;;;;;;;4.40;1.58;;;;;;;;;;5031996;28;20278;-48
2021/07/09 13:01:27;;;;;;;3.40;1.70;;;;;;;;;;5032879;28;20187;-48
2021/07/09 13:03:53;;;;;;;3.92;1.50;;;;;;;;;;5033345;28;20176;-47
2021/07/09 13:06:26;;;;;;;2.60;1.65;;;;;;;;;;5032958;28;20633;-47
2021/07/09 13:09:07;;;;;;;2.30;1.20;;;;;;;;;;5034285;28;20199;-48
2021/07/09 13:11:37;;;;;;;1.30;1.20;;;;;;;;;;5033791;28;20705;-48
2021/07/09 13:14:03;;;;;;;1.67;1.27;;;;;;;;;;5032167;28;20187;-48
2021/07/09 13:16:29;;;;;;;1.85;0.80;;;;;;;;;;5022752;28;20211;-48
2021/07/09 13:18:59;;;;;;;4.43;1.10;;;;;;;;;;5033298;28;20180;-48
2021/07/09 13:21:27;;;;;;;1.10;0.90;;;;;;;;;;5033088;28;20180;-48
2021/07/09 13:24:04;;;;;;;0.85;0.85;;;;;;;;;;5031534;28;20200;-47
2021/07/09 13:26:35;;;;;;;1.38;0.70;;;;;;;;;;5032579;28;20186;-47
2021/07/09 13:29:01;;;;;;;0.85;0.57;;;;;;;;;;5033268;28;20191;-47
2021/07/09 13:31:27;;;;;;;2.95;0.70;;;;;;;;;;5031958;28;20179;-47
2021/07/09 13:33:53;;;;;;;0.80;0.65;;;;;;;;;;5035590;28;20174;-47
2021/07/09 13:36:30;;;;;;;1.90;1.10;;;;;;;;;;5037143;28;20196;-47
2021/07/09 13:38:57;;;;;;;0.73;0.60;;;;;;;;;;5030115;28;20176;-47
2021/07/09 13:41:22;;;;;;;0.50;0.50;;;;;;;;;;5037223;28;20180;-47
2021/07/09 13:43:49;;;;;;;1.50;0.50;;;;;;;;;;5037437;28;20426;-47
2021/07/09 13:46:15;;;;;;;1.15;0.52;;;;;;;;;;5032405;28;20172;-47
2021/07/09 13:48:41;;;;;;;0.52;0.52;;;;;;;;;;5037345;28;20180;-47
2021/07/09 13:51:08;;;;;;;0.60;0.60;;;;;;;;;;5035964;28;20230;-47
2021/07/09 13:53:34;;;;;;;3.80;0.93;;;;;;;;;;5042998;28;20191;-47
2021/07/09 13:56:00;;;;;;;2.80;0.77;;;;;;;;;;5036557;28;20554;-47
2021/07/09 13:58:26;;;;;;;1.48;0.77;;;;;;;;;;5036701;28;20211;-47
2021/07/09 14:00:52;;;;;;;1.85;0.68;;;;;;;;;;5036218;28;20222;-47
2021/07/09 14:03:18;;;;;;;1.92;0.90;;;;;;;;;;5035936;28;20212;-47
2021/07/09 14:05:44;;;;;;;2.65;0.88;;;;;;;;;;5036099;28;20176;-47
2021/07/09 14:08:10;;;;;;;1.00;0.60;;;;;;;;;;5036406;28;20190;-47
2021/07/09 14:10:36;;;;;;;1.50;0.80;;;;;;;;;;5036890;28;20483;-47
2021/07/09 14:13:03;;;;;;;1.63;0.80;;;;;;;;;;5036866;28;20194;-47
2021/07/09 14:15:30;;;;;;;1.20;1.00;;;;;;;;;;5036990;28;20176;-47
2021/07/09 14:17:57;;;;;;;2.25;0.65;;;;;;;;;;5035499;28;20231;-47
2021/07/09 14:20:23;;;;;;;0.70;0.60;;;;;;;;;;5036890;28;20210;-47
2021/07/09 14:22:49;;;;;;;1.42;0.70;;;;;;;;;;5036626;28;20547;-47
2021/07/09 14:25:15;;;;;;;1.15;0.65;;;;;;;;;;5036562;28;20200;-47
2021/07/09 14:27:41;;;;;;;0.65;0.65;;;;;;;;;;5035881;28;20193;-47
2021/07/09 14:30:07;;;;;;;0.70;0.70;;;;;;;;;;5036825;28;20225;-47
2021/07/09 14:32:33;;;;;;;1.10;0.60;;;;;;;;;;5036365;28;20271;-47
2021/07/09 14:34:59;;;;;;;1.42;0.82;;;;;;;;;;5035214;28;20279;-47
2021/07/09 14:37:25;;;;;;;0.60;0.57;;;;;;;;;;5035060;28;20196;-47
2021/07/09 14:39:54;;;;;;;1.38;0.70;;;;;;;;;;5036095;28;20233;-47
2021/07/09 14:42:21;;;;;;;1.45;0.45;;;;;;;;;;5036111;28;20176;-47